createdAt,value
2019-01-26T00:01:01.795Z,21.90
2019-01-26T00:03:30.360Z,21.90
2019-01-26T00:05:58.940Z,21.90
2019-01-26T00:08:27.524Z,21.90
2019-01-26T00:10:56.103Z,21.90
2019-01-26T00:13:24.684Z,21.90
2019-01-26T00:15:53.254Z,21.90
2019-01-26T00:18:21.832Z,21.90
2019-01-26T00:20:50.412Z,21.80
2019-01-26T00:23:19.034Z,21.80
2019-01-26T00:25:48.007Z,21.80
2019-01-26T00:28:16.587Z,21.80
2019-01-26T00:30:45.156Z,21.80
2019-01-26T00:33:13.744Z,21.80
2019-01-26T00:35:42.319Z,21.80
2019-01-26T00:38:10.899Z,21.80
2019-01-26T00:40:39.482Z,21.80
2019-01-26T00:43:08.084Z,21.80
2019-01-26T00:45:36.695Z,21.80
2019-01-26T00:48:05.656Z,21.70
2019-01-26T00:50:34.211Z,21.70
2019-01-26T00:53:03.044Z,21.70
2019-01-26T00:55:31.845Z,21.70
2019-01-26T00:58:00.456Z,21.70
2019-01-26T01:00:29.039Z,21.70
2019-01-26T01:02:57.619Z,21.70
2019-01-26T01:05:26.210Z,21.70
2019-01-26T01:07:54.845Z,21.70
2019-01-26T01:10:23.564Z,21.60
2019-01-26T01:12:52.157Z,21.70
2019-01-26T01:15:21.025Z,21.70
2019-01-26T01:17:49.847Z,21.70
2019-01-26T01:20:18.729Z,21.70
2019-01-26T01:22:47.475Z,21.70
2019-01-26T01:25:16.031Z,21.60
2019-01-26T01:27:44.605Z,21.60
2019-01-26T01:30:15.581Z,21.60
2019-01-26T01:32:44.157Z,21.60
2019-01-26T01:35:12.727Z,21.60
2019-01-26T01:37:41.308Z,21.60
2019-01-26T01:40:09.919Z,21.60
2019-01-26T01:42:38.504Z,21.60
2019-01-26T01:45:09.067Z,21.60
2019-01-26T01:47:37.699Z,21.60
2019-01-26T01:50:07.176Z,21.60
2019-01-26T01:52:35.829Z,21.60
2019-01-26T01:55:04.534Z,21.60
2019-01-26T01:57:33.194Z,21.60
2019-01-26T02:00:01.778Z,21.60
2019-01-26T02:02:30.358Z,21.60
2019-01-26T02:04:58.952Z,21.60
2019-01-26T02:07:27.523Z,21.60
2019-01-26T02:09:56.091Z,21.60
2019-01-26T02:12:25.012Z,21.60
2019-01-26T02:14:53.580Z,21.60
2019-01-26T02:17:22.166Z,21.60
2019-01-26T02:19:50.731Z,21.60
2019-01-26T02:22:19.317Z,21.60
2019-01-26T02:24:48.143Z,21.60
2019-01-26T02:27:16.747Z,21.50
2019-01-26T02:29:45.335Z,21.50
2019-01-26T02:32:13.956Z,21.50
2019-01-26T02:34:42.530Z,21.50
2019-01-26T02:37:11.121Z,21.50
2019-01-26T02:39:40.032Z,21.50
2019-01-26T02:42:08.919Z,21.50
2019-01-26T02:44:37.497Z,21.50
2019-01-26T02:47:06.127Z,21.50
2019-01-26T02:49:34.737Z,21.50
2019-01-26T02:52:03.322Z,21.50
2019-01-26T02:54:32.274Z,21.50
2019-01-26T02:57:00.851Z,21.50
2019-01-26T02:59:29.443Z,21.50
2019-01-26T03:01:58.047Z,21.50
2019-01-26T03:04:26.642Z,21.50
2019-01-26T03:06:55.223Z,21.50
2019-01-26T03:09:23.825Z,21.50
2019-01-26T03:11:52.398Z,21.40
2019-01-26T03:14:20.988Z,21.40
2019-01-26T03:16:49.574Z,21.40
2019-01-26T03:19:18.147Z,21.40
2019-01-26T03:21:46.787Z,21.40
2019-01-26T03:24:15.366Z,21.40
2019-01-26T03:26:43.966Z,21.40
2019-01-26T03:29:12.558Z,21.40
2019-01-26T03:31:41.145Z,21.40
2019-01-26T03:34:09.735Z,21.40
2019-01-26T03:36:38.319Z,21.40
2019-01-26T03:39:08.678Z,21.40
2019-01-26T03:41:37.241Z,21.40
2019-01-26T03:44:05.814Z,21.40
2019-01-26T03:46:34.425Z,21.40
2019-01-26T03:49:02.998Z,21.40
2019-01-26T03:51:31.576Z,21.40
2019-01-26T03:54:00.161Z,21.40
2019-01-26T03:56:28.760Z,21.40
2019-01-26T03:58:57.334Z,21.40
2019-01-26T04:01:25.908Z,21.40
2019-01-26T04:03:54.479Z,21.40
2019-01-26T04:06:23.064Z,21.40
2019-01-26T04:08:51.636Z,21.40
2019-01-26T04:11:20.222Z,21.40
2019-01-26T04:13:49.996Z,21.40
2019-01-26T04:16:18.598Z,21.40
2019-01-26T04:18:47.295Z,21.40
2019-01-26T04:21:15.858Z,21.40
2019-01-26T04:23:44.441Z,21.30
2019-01-26T04:26:13.050Z,21.30
2019-01-26T04:28:41.619Z,21.30
2019-01-26T04:31:10.204Z,21.30
2019-01-26T04:33:38.781Z,21.30
2019-01-26T04:36:07.384Z,21.30
2019-01-26T04:38:36.021Z,21.30
2019-01-26T04:41:04.598Z,21.30
2019-01-26T04:43:33.195Z,21.30
2019-01-26T04:46:01.806Z,21.30
2019-01-26T04:48:30.388Z,21.30
2019-01-26T04:50:58.985Z,21.30
2019-01-26T04:53:27.568Z,21.30
2019-01-26T04:55:56.169Z,21.30
2019-01-26T04:58:24.729Z,21.30
2019-01-26T05:00:53.300Z,21.30
2019-01-26T05:03:21.881Z,21.30
2019-01-26T05:05:50.464Z,21.30
2019-01-26T05:08:19.032Z,21.30
2019-01-26T05:10:48.031Z,21.30
2019-01-26T05:13:16.616Z,21.30
2019-01-26T05:15:45.212Z,21.30
2019-01-26T05:18:14.116Z,21.30
2019-01-26T05:20:42.694Z,21.30
2019-01-26T05:23:11.275Z,21.30
2019-01-26T05:25:39.846Z,21.30
2019-01-26T05:28:08.592Z,21.30
2019-01-26T05:30:37.180Z,21.30
2019-01-26T05:33:05.764Z,21.30
2019-01-26T05:35:34.639Z,21.30
2019-01-26T05:38:03.223Z,21.30
2019-01-26T05:40:31.797Z,21.20
2019-01-26T05:43:00.395Z,21.30
2019-01-26T05:45:28.986Z,21.20
2019-01-26T05:47:57.581Z,21.20
2019-01-26T05:50:26.756Z,21.20
2019-01-26T05:52:55.412Z,21.20
2019-01-26T05:55:24.037Z,21.20
2019-01-26T05:57:52.618Z,21.20
2019-01-26T06:00:27.436Z,21.20
2019-01-26T06:02:56.020Z,21.20
2019-01-26T06:05:24.606Z,21.20
2019-01-26T06:07:53.245Z,21.20
2019-01-26T06:10:21.949Z,21.20
2019-01-26T06:12:50.610Z,21.20
2019-01-26T06:15:19.186Z,21.20
2019-01-26T06:17:54.786Z,21.20
2019-01-26T06:20:18.367Z,21.20
2019-01-26T06:22:48.013Z,21.20
2019-01-26T06:25:17.248Z,21.20
2019-01-26T06:27:45.877Z,21.20
2019-01-26T06:30:16.972Z,21.20
2019-01-26T06:32:45.551Z,21.20
2019-01-26T06:35:14.123Z,21.20
2019-01-26T06:37:42.747Z,21.20
2019-01-26T06:40:12.880Z,21.20
2019-01-26T06:42:41.479Z,21.20
2019-01-26T06:45:10.658Z,21.20
2019-01-26T06:47:39.235Z,21.20
2019-01-26T06:50:12.857Z,21.20
2019-01-26T06:52:41.468Z,21.20
2019-01-26T06:55:10.492Z,21.20
2019-01-26T06:57:39.072Z,21.20
2019-01-26T07:00:12.329Z,21.10
2019-01-26T07:02:40.897Z,21.20
2019-01-26T07:05:29.009Z,21.10
2019-01-26T07:07:57.583Z,21.20
2019-01-26T07:10:26.172Z,21.10
2019-01-26T07:12:55.062Z,21.10
2019-01-26T07:15:23.996Z,21.20
2019-01-26T07:17:52.852Z,21.20
2019-01-26T07:20:21.436Z,21.20
2019-01-26T07:22:50.131Z,21.20
2019-01-26T07:25:19.183Z,21.20
2019-01-26T07:27:49.084Z,21.30
2019-01-26T07:30:19.419Z,21.30
2019-01-26T07:32:48.581Z,21.30
2019-01-26T07:35:17.160Z,21.30
2019-01-26T07:37:45.748Z,21.40
2019-01-26T07:40:16.673Z,21.40
2019-01-26T07:42:45.256Z,21.40
2019-01-26T07:45:13.891Z,21.50
2019-01-26T07:47:42.480Z,21.50
2019-01-26T07:50:13.263Z,21.50
2019-01-26T07:52:42.032Z,21.50
2019-01-26T07:55:10.628Z,21.60
2019-01-26T07:57:39.195Z,21.60
2019-01-26T08:00:11.100Z,21.60
2019-01-26T08:02:39.675Z,21.60
2019-01-26T08:05:09.487Z,21.60
2019-01-26T08:07:38.060Z,21.70
2019-01-26T08:10:10.627Z,21.70
2019-01-26T08:12:39.223Z,21.70
2019-01-26T08:15:09.779Z,21.70
2019-01-26T08:17:38.620Z,21.70
2019-01-26T08:20:10.141Z,21.80
2019-01-26T08:22:39.819Z,21.80
2019-01-26T08:25:08.394Z,21.80
2019-01-26T08:27:37.919Z,21.80
2019-01-26T08:30:09.108Z,21.90
2019-01-26T08:32:37.750Z,21.90
2019-01-26T08:35:06.367Z,21.80
2019-01-26T08:37:34.957Z,21.90
2019-01-26T08:40:08.667Z,21.90
2019-01-26T08:42:39.089Z,21.90
2019-01-26T08:45:09.440Z,21.90
2019-01-26T08:47:38.003Z,21.90
2019-01-26T08:50:10.077Z,21.90
2019-01-26T08:52:40.628Z,21.90
2019-01-26T08:55:17.854Z,21.90
2019-01-26T08:57:41.447Z,22.00
2019-01-26T09:00:13.627Z,22.00
2019-01-26T09:03:07.579Z,22.00
2019-01-26T09:05:44.957Z,22.00
2019-01-26T09:08:13.516Z,22.00
2019-01-26T09:10:42.122Z,22.00
2019-01-26T09:13:10.708Z,22.00
2019-01-26T09:15:39.289Z,22.00
2019-01-26T09:18:07.847Z,22.00
2019-01-26T09:20:36.691Z,22.00
2019-01-26T09:23:05.296Z,22.00
2019-01-26T09:25:34.181Z,22.10
2019-01-26T09:28:02.830Z,22.10
2019-01-26T09:30:31.440Z,22.10
2019-01-26T09:33:00.013Z,22.00
2019-01-26T09:35:28.589Z,22.00
2019-01-26T09:37:57.448Z,22.00
2019-01-26T09:40:26.033Z,22.00
2019-01-26T09:42:54.607Z,22.10
2019-01-26T09:45:23.189Z,22.10
2019-01-26T09:47:51.775Z,22.10
2019-01-26T09:50:20.378Z,22.10
2019-01-26T09:52:49.374Z,22.10
2019-01-26T09:55:17.993Z,22.10
2019-01-26T09:57:46.861Z,22.00
2019-01-26T10:00:16.672Z,22.00
2019-01-26T10:02:45.248Z,22.00
2019-01-26T10:05:13.833Z,22.00
2019-01-26T10:07:42.410Z,22.00
2019-01-26T10:10:11.423Z,22.00
2019-01-26T10:12:39.983Z,22.00
2019-01-26T10:15:11.221Z,22.00
2019-01-26T10:17:45.745Z,22.00
2019-01-26T10:20:19.575Z,22.00
2019-01-26T10:22:49.269Z,22.00
2019-01-26T10:25:18.075Z,22.00
2019-01-26T10:27:46.799Z,22.10
2019-01-26T10:30:23.806Z,22.10
2019-01-26T10:32:52.408Z,22.10
2019-01-26T10:35:22.859Z,22.10
2019-01-26T10:37:51.479Z,22.10
2019-01-26T10:40:38.095Z,22.10
2019-01-26T10:43:06.967Z,22.10
2019-01-26T10:45:35.900Z,22.10
2019-01-26T10:48:04.523Z,22.10
2019-01-26T10:50:33.155Z,22.10
2019-01-26T10:53:01.744Z,22.10
2019-01-26T10:55:30.324Z,22.10
2019-01-26T10:57:58.912Z,22.10
2019-01-26T11:00:27.475Z,22.10
2019-01-26T11:02:56.060Z,22.10
2019-01-26T11:05:24.653Z,22.10
2019-01-26T11:07:53.231Z,22.10
2019-01-26T11:10:22.109Z,22.20
2019-01-26T11:12:50.703Z,22.20
2019-01-26T11:15:19.288Z,22.20
2019-01-26T11:17:47.975Z,22.20
2019-01-26T11:20:16.568Z,22.20
2019-01-26T11:22:45.134Z,22.20
2019-01-26T11:25:14.048Z,22.20
2019-01-26T11:27:42.620Z,22.20
2019-01-26T11:30:11.237Z,22.20
2019-01-26T11:32:40.179Z,22.20
2019-01-26T11:35:10.194Z,22.20
2019-01-26T11:37:38.759Z,22.20
2019-01-26T11:40:15.943Z,22.20
2019-01-26T11:42:44.580Z,22.20
2019-01-26T11:45:31.115Z,22.20
2019-01-26T11:48:00.568Z,22.10
2019-01-26T11:50:34.909Z,22.10
2019-01-26T11:53:03.532Z,22.20
2019-01-26T11:55:51.196Z,22.20
2019-01-26T11:58:19.780Z,22.20
2019-01-26T12:01:02.889Z,22.20
2019-01-26T12:03:53.483Z,22.20
2019-01-26T12:06:31.724Z,22.20
2019-01-26T12:09:00.317Z,22.20
2019-01-26T12:11:28.905Z,22.20
2019-01-26T12:13:57.640Z,22.20
2019-01-26T12:16:26.959Z,22.20
2019-01-26T12:18:55.862Z,22.20
2019-01-26T12:21:24.445Z,22.20
2019-01-26T12:23:53.054Z,22.20
2019-01-26T12:26:21.623Z,22.20
2019-01-26T12:28:50.274Z,22.20
2019-01-26T12:31:18.844Z,22.30
2019-01-26T12:33:47.617Z,22.20
2019-01-26T12:36:16.188Z,22.30
2019-01-26T12:38:45.080Z,22.30
2019-01-26T12:41:13.665Z,22.30
2019-01-26T12:43:42.244Z,22.30
2019-01-26T12:46:10.843Z,22.30
2019-01-26T12:48:39.420Z,22.30
2019-01-26T12:51:08.003Z,22.30
2019-01-26T12:53:36.898Z,22.30
2019-01-26T12:56:06.379Z,22.30
2019-01-26T12:58:34.986Z,22.30
2019-01-26T13:01:03.611Z,22.20
2019-01-26T13:03:32.312Z,22.20
2019-01-26T13:06:01.074Z,22.30
2019-01-26T13:08:29.658Z,22.20
2019-01-26T13:11:00.847Z,22.30
2019-01-26T13:13:29.432Z,22.30
2019-01-26T13:15:58.010Z,22.30
2019-01-26T13:18:26.612Z,22.30
2019-01-26T13:20:55.195Z,22.30
2019-01-26T13:23:23.780Z,22.30
2019-01-26T13:25:52.362Z,22.40
2019-01-26T13:28:21.104Z,22.30
2019-01-26T13:30:49.706Z,22.40
2019-01-26T13:33:18.902Z,22.50
2019-01-26T13:35:47.566Z,22.50
2019-01-26T13:38:16.153Z,22.50
2019-01-26T13:40:44.748Z,22.50
2019-01-26T13:43:13.435Z,22.50
2019-01-26T13:45:42.018Z,22.40
2019-01-26T13:48:10.692Z,22.40
2019-01-26T13:50:39.588Z,22.30
2019-01-26T13:53:08.177Z,22.30
2019-01-26T13:55:36.795Z,22.30
2019-01-26T13:58:05.596Z,22.30
2019-01-26T14:00:34.642Z,22.30
2019-01-26T14:03:03.242Z,22.40
2019-01-26T14:05:31.939Z,22.40
2019-01-26T14:08:00.514Z,22.40
2019-01-26T14:10:29.071Z,22.40
2019-01-26T14:12:57.647Z,22.40
2019-01-26T14:15:26.232Z,22.40
2019-01-26T14:17:54.813Z,22.40
2019-01-26T14:20:23.631Z,22.60
2019-01-26T14:22:52.212Z,22.50
2019-01-26T14:25:20.784Z,22.50
2019-01-26T14:27:49.456Z,22.40
2019-01-26T14:30:26.981Z,22.40
2019-01-26T14:32:55.542Z,22.40
2019-01-26T14:35:24.155Z,22.40
2019-01-26T14:37:52.745Z,22.40
2019-01-26T14:40:21.327Z,22.40
2019-01-26T14:42:54.229Z,22.40
2019-01-26T14:45:20.257Z,22.40
2019-01-26T14:47:48.868Z,22.30
2019-01-26T14:50:17.488Z,22.40
2019-01-26T14:52:46.111Z,22.40
2019-01-26T14:55:16.773Z,22.30
2019-01-26T14:57:45.367Z,22.30
2019-01-26T15:00:17.611Z,22.30
2019-01-26T15:02:46.195Z,22.30
2019-01-26T15:05:14.779Z,22.30
2019-01-26T15:07:43.348Z,22.30
2019-01-26T15:10:11.944Z,22.30
2019-01-26T15:12:40.532Z,22.30
2019-01-26T15:15:10.188Z,22.30
2019-01-26T15:17:38.770Z,22.30
2019-01-26T15:20:11.153Z,22.30
2019-01-26T15:22:39.735Z,22.30
2019-01-26T15:25:08.372Z,22.30
2019-01-26T15:27:36.933Z,22.30
2019-01-26T15:30:10.147Z,22.20
2019-01-26T15:32:38.707Z,22.30
2019-01-26T15:35:07.292Z,22.30
2019-01-26T15:37:35.871Z,22.30
2019-01-26T15:40:05.037Z,22.20
2019-01-26T15:42:33.701Z,22.30
2019-01-26T15:45:03.286Z,22.30
2019-01-26T15:47:32.160Z,22.20
2019-01-26T15:50:00.730Z,22.20
2019-01-26T15:52:29.322Z,22.30
2019-01-26T15:54:57.912Z,22.30
2019-01-26T15:57:26.484Z,22.30
2019-01-26T15:59:55.056Z,22.30
2019-01-26T16:02:23.957Z,22.30
2019-01-26T16:04:52.522Z,22.30
2019-01-26T16:07:21.092Z,22.30
2019-01-26T16:09:49.739Z,22.30
2019-01-26T16:12:18.620Z,22.40
2019-01-26T16:14:47.803Z,22.40
2019-01-26T16:17:16.369Z,22.30
2019-01-26T16:19:44.940Z,22.40
2019-01-26T16:22:13.507Z,22.40
2019-01-26T16:24:42.202Z,22.40
2019-01-26T16:27:10.783Z,22.40
2019-01-26T16:29:39.368Z,22.40
2019-01-26T16:32:08.463Z,22.40
2019-01-26T16:34:37.035Z,22.40
2019-01-26T16:37:05.650Z,22.40
2019-01-26T16:39:34.296Z,22.40
2019-01-26T16:42:02.943Z,22.40
2019-01-26T16:44:32.159Z,22.30
2019-01-26T16:47:00.903Z,22.30
2019-01-26T16:49:29.480Z,22.40
2019-01-26T16:51:58.336Z,22.40
2019-01-26T16:54:26.914Z,22.40
2019-01-26T16:56:55.508Z,22.40
2019-01-26T16:59:24.099Z,22.40
2019-01-26T17:01:52.686Z,22.30
2019-01-26T17:04:21.270Z,22.40
2019-01-26T17:06:50.236Z,22.30
2019-01-26T17:09:18.816Z,22.30
2019-01-26T17:11:47.615Z,22.30
2019-01-26T17:14:16.211Z,22.30
2019-01-26T17:16:44.791Z,22.40
2019-01-26T17:19:13.540Z,22.30
2019-01-26T17:21:42.286Z,22.30
2019-01-26T17:24:10.860Z,22.30
2019-01-26T17:26:39.411Z,22.30
2019-01-26T17:29:07.994Z,22.30
2019-01-26T17:31:36.581Z,22.30
2019-01-26T17:34:05.165Z,22.30
2019-01-26T17:36:33.776Z,22.30
2019-01-26T17:39:02.528Z,22.30
2019-01-26T17:41:31.125Z,22.30
2019-01-26T17:43:59.766Z,22.30
2019-01-26T17:46:28.337Z,22.30
2019-01-26T17:48:56.927Z,22.40
2019-01-26T17:51:25.525Z,22.40
2019-01-26T17:53:54.150Z,22.30
2019-01-26T17:56:23.050Z,22.40
2019-01-26T17:58:51.949Z,22.40
2019-01-26T18:01:20.576Z,22.40
2019-01-26T18:03:49.316Z,22.40
2019-01-26T18:06:17.904Z,22.40
2019-01-26T18:08:46.531Z,22.40
2019-01-26T18:11:15.105Z,22.40
2019-01-26T18:13:43.691Z,22.40
2019-01-26T18:16:12.279Z,22.50
2019-01-26T18:18:40.892Z,22.50
2019-01-26T18:21:09.484Z,22.50
2019-01-26T18:23:38.130Z,22.50
2019-01-26T18:26:07.388Z,22.40
2019-01-26T18:28:35.965Z,22.40
2019-01-26T18:31:04.540Z,22.40
2019-01-26T18:33:33.204Z,22.40
2019-01-26T18:36:01.772Z,22.40
2019-01-26T18:38:30.367Z,22.40
2019-01-26T18:40:59.302Z,22.40
2019-01-26T18:43:27.896Z,22.40
2019-01-26T18:45:56.496Z,22.40
2019-01-26T18:48:25.080Z,22.40
2019-01-26T18:50:56.295Z,22.40
2019-01-26T18:53:23.983Z,22.40
2019-01-26T18:55:52.562Z,22.40
2019-01-26T18:58:21.160Z,22.40
2019-01-26T19:00:50.832Z,22.40
2019-01-26T19:03:48.956Z,22.40
2019-01-26T19:06:17.546Z,22.40
2019-01-26T19:08:46.210Z,22.40
2019-01-26T19:11:14.860Z,22.40
2019-01-26T19:13:43.432Z,22.40
2019-01-26T19:16:12.014Z,22.40
2019-01-26T19:18:40.620Z,22.40
2019-01-26T19:21:09.202Z,22.40
2019-01-26T19:23:39.403Z,22.40
2019-01-26T19:26:08.029Z,22.40
2019-01-26T19:28:36.586Z,22.40
2019-01-26T19:31:05.168Z,22.40
2019-01-26T19:33:33.968Z,22.40
2019-01-26T19:36:02.548Z,22.40
2019-01-26T19:38:31.166Z,22.40
2019-01-26T19:40:59.822Z,22.40
2019-01-26T19:43:28.388Z,22.40
2019-01-26T19:45:56.969Z,22.40
2019-01-26T19:48:26.478Z,22.40
2019-01-26T19:50:55.038Z,22.30
2019-01-26T19:53:23.603Z,22.40
2019-01-26T19:55:52.212Z,22.30
2019-01-26T19:58:20.791Z,22.40
2019-01-26T20:00:49.439Z,22.30
2019-01-26T20:48:39.459Z,20.60
2019-01-26T20:51:08.317Z,20.90
2019-01-26T20:53:37.324Z,21.60
2019-01-26T20:56:18.599Z,21.50
2019-01-26T21:04:19.122Z,22.70
2019-01-26T21:06:50.541Z,22.50
2019-01-26T21:12:41.331Z,22.80
2019-01-26T21:15:10.047Z,22.60
2019-01-26T21:21:45.231Z,20.00
2019-01-26T21:24:13.840Z,15.70
2019-01-26T21:26:42.423Z,12.50
2019-01-26T21:29:11.012Z,11.10
2019-01-26T21:31:39.873Z,10.00
2019-01-26T21:34:08.450Z,9.20
2019-01-26T21:36:37.026Z,8.90
2019-01-26T21:39:08.048Z,8.60
2019-01-26T21:41:36.615Z,8.50
2019-01-26T21:44:05.193Z,8.50
2019-01-26T21:46:33.920Z,8.40
2019-01-26T21:49:02.465Z,8.40
2019-01-26T21:51:31.091Z,8.30
2019-01-26T21:53:59.727Z,8.30
2019-01-26T21:56:28.296Z,8.30
2019-01-26T21:58:56.876Z,8.30
2019-01-26T22:01:25.472Z,8.30
2019-01-26T22:03:54.299Z,8.40
2019-01-26T22:06:22.864Z,8.30
2019-01-26T22:08:51.776Z,8.40
2019-01-26T22:11:20.361Z,8.40
2019-01-26T22:13:50.590Z,8.40
2019-01-26T22:16:19.214Z,8.40
2019-01-26T22:18:48.005Z,8.40
2019-01-26T22:21:16.609Z,8.40
2019-01-26T22:23:45.172Z,8.30
2019-01-26T22:26:13.739Z,8.30
2019-01-26T22:29:01.973Z,8.30
2019-01-26T22:31:30.548Z,8.20
2019-01-26T22:33:59.123Z,8.30
2019-01-26T22:36:27.711Z,8.30
2019-01-26T22:38:56.300Z,8.30
2019-01-26T22:41:24.871Z,8.30
2019-01-26T22:43:53.572Z,8.30
2019-01-26T22:46:22.141Z,8.30
2019-01-26T22:48:50.774Z,8.30
2019-01-26T22:51:38.767Z,8.30
2019-01-26T22:54:07.364Z,8.40
2019-01-26T22:56:35.928Z,8.50
2019-01-26T22:59:04.528Z,8.50
2019-01-26T23:01:38.731Z,8.50
2019-01-26T23:04:37.752Z,8.60
2019-01-26T23:07:30.892Z,8.60
2019-01-26T23:10:43.015Z,8.50
2019-01-26T23:13:49.163Z,8.40
2019-01-26T23:17:23.432Z,8.40
2019-01-26T23:20:09.091Z,8.40
2019-01-26T23:23:15.221Z,8.40
2019-01-26T23:26:05.548Z,8.40
2019-01-26T23:28:48.892Z,8.40
2019-01-26T23:31:21.020Z,8.40
2019-01-26T23:33:50.908Z,8.40
2019-01-26T23:36:19.484Z,8.50
2019-01-26T23:38:48.319Z,8.50
2019-01-26T23:41:17.175Z,8.60
2019-01-26T23:43:45.758Z,8.60
2019-01-26T23:46:14.342Z,8.60
2019-01-26T23:48:42.916Z,8.50
2019-01-26T23:51:11.490Z,8.50
2019-01-26T23:53:41.055Z,8.50
2019-01-26T23:56:09.624Z,8.50
2019-01-26T23:58:38.200Z,8.60
